createdAt,value
2022-08-21T00:02:00.502Z,3.45
2022-08-21T00:07:07.454Z,4.50
2022-08-21T00:12:14.540Z,4.90
2022-08-21T00:17:21.521Z,4.12
2022-08-21T00:22:28.490Z,3.77
2022-08-21T00:27:35.494Z,7.65
2022-08-21T00:32:42.645Z,8.42
2022-08-21T00:37:49.592Z,5.95
2022-08-21T00:42:56.820Z,5.30
2022-08-21T00:48:03.627Z,5.87
2022-08-21T00:53:10.719Z,6.46
2022-08-21T00:58:17.666Z,6.08
2022-08-21T01:03:24.168Z,6.46
2022-08-21T01:08:31.257Z,6.29
2022-08-21T01:13:38.219Z,6.06
2022-08-21T01:18:45.407Z,7.67
2022-08-21T01:23:52.393Z,7.50
2022-08-21T01:28:59.477Z,6.25
2022-08-21T01:34:06.462Z,6.64
2022-08-21T01:39:13.590Z,5.20
2022-08-21T01:44:20.557Z,6.68
2022-08-21T01:49:29.022Z,6.90
2022-08-21T01:54:36.009Z,7.31
2022-08-21T01:59:43.221Z,7.19
2022-08-21T02:04:50.146Z,6.64
2022-08-21T02:09:57.195Z,7.25
2022-08-21T02:15:03.720Z,6.34
2022-08-21T02:20:10.766Z,5.82
2022-08-21T02:25:17.711Z,12.11
2022-08-21T02:30:24.692Z,6.85
2022-08-21T02:35:31.666Z,9.47
2022-08-21T02:40:38.613Z,7.59
2022-08-21T02:45:45.107Z,9.25
2022-08-21T02:50:52.215Z,7.20
2022-08-21T02:55:59.207Z,6.02
2022-08-21T03:01:06.247Z,7.34
2022-08-21T03:06:13.209Z,6.50
2022-08-21T03:11:20.286Z,7.98
2022-08-21T03:16:27.234Z,8.95
2022-08-21T03:21:34.363Z,9.36
2022-08-21T03:26:41.510Z,7.49
2022-08-21T03:31:48.431Z,7.50
2022-08-21T03:36:54.897Z,9.32
2022-08-21T03:42:02.035Z,8.52
2022-08-21T03:47:08.969Z,9.41
2022-08-21T03:52:15.968Z,8.23
2022-08-21T03:57:23.059Z,7.41
2022-08-21T04:02:30.109Z,9.97
2022-08-21T04:07:37.224Z,7.43
2022-08-21T04:12:44.153Z,6.21
2022-08-21T04:17:51.421Z,6.41
2022-08-21T04:22:58.532Z,6.92
2022-08-21T04:28:05.572Z,7.38
2022-08-21T04:33:12.530Z,8.02
2022-08-21T04:38:19.628Z,8.73
2022-08-21T04:43:26.620Z,8.70
2022-08-21T04:48:33.649Z,8.69
2022-08-21T04:53:40.568Z,6.37
2022-08-21T04:58:47.675Z,5.56
2022-08-21T05:03:54.596Z,9.15
2022-08-21T05:09:02.307Z,9.59
2022-08-21T05:14:08.223Z,10.87
2022-08-21T05:19:15.481Z,8.99
2022-08-21T05:24:22.432Z,6.63
2022-08-21T05:29:29.595Z,7.70
2022-08-21T05:34:36.100Z,8.53
2022-08-21T05:40:04.605Z,9.15
2022-08-21T05:44:49.237Z,8.88
2022-08-21T05:49:56.400Z,9.62
2022-08-21T05:55:03.513Z,9.20
2022-08-21T06:00:10.687Z,11.54
2022-08-21T06:05:36.354Z,10.50
2022-08-21T06:10:24.377Z,7.93
2022-08-21T06:15:31.306Z,7.79
2022-08-21T06:20:38.782Z,9.59
2022-08-21T06:25:45.846Z,10.10
2022-08-21T06:30:52.943Z,11.52
2022-08-21T06:35:59.848Z,13.25
2022-08-21T06:41:06.943Z,11.54
2022-08-21T06:46:13.909Z,11.83
2022-08-21T06:51:21.011Z,11.38
2022-08-21T06:56:27.971Z,15.92
2022-08-21T07:01:35.048Z,12.03
2022-08-21T07:06:41.975Z,14.08
2022-08-21T07:11:49.479Z,13.63
2022-08-21T07:16:56.393Z,15.24
2022-08-21T07:22:03.545Z,13.08
2022-08-21T07:27:10.477Z,10.37
2022-08-21T07:32:21.288Z,12.23
2022-08-21T07:37:24.058Z,14.07
2022-08-21T07:42:31.126Z,10.41
2022-08-21T07:47:42.433Z,10.41
2022-08-21T07:52:44.939Z,8.59
2022-08-21T07:57:51.874Z,7.43
2022-08-21T08:02:59.159Z,8.61
2022-08-21T08:08:05.866Z,8.21
2022-08-21T08:13:12.925Z,8.14
2022-08-21T08:18:19.887Z,8.16
2022-08-21T08:23:26.926Z,8.93
2022-08-21T08:28:33.901Z,6.28
2022-08-21T08:33:41.033Z,7.28
2022-08-21T08:38:48.023Z,8.04
2022-08-21T08:43:55.125Z,6.40
2022-08-21T08:49:02.128Z,5.33
2022-08-21T08:54:08.651Z,8.29
2022-08-21T08:59:15.646Z,5.42
2022-08-21T09:04:22.712Z,4.30
2022-08-21T09:09:29.686Z,7.55
2022-08-21T09:14:36.877Z,5.26
2022-08-21T09:19:43.816Z,3.99
2022-08-21T09:24:52.061Z,3.55
2022-08-21T09:29:57.293Z,3.66
2022-08-21T09:35:04.472Z,3.91
2022-08-21T09:40:11.475Z,2.78
2022-08-21T09:45:18.382Z,2.85
2022-08-21T09:50:25.328Z,2.56
2022-08-21T09:55:32.337Z,7.17
2022-08-21T10:00:39.340Z,5.03
2022-08-21T10:05:46.256Z,8.39
2022-08-21T10:10:54.391Z,3.22
2022-08-21T10:15:59.826Z,5.35
2022-08-21T10:21:11.372Z,4.41
2022-08-21T10:26:14.537Z,2.31
2022-08-21T10:31:19.955Z,3.95
2022-08-21T10:36:27.057Z,3.19
2022-08-21T10:41:33.959Z,4.24
2022-08-21T10:46:41.086Z,3.25
2022-08-21T10:51:48.079Z,4.21
2022-08-21T10:56:55.055Z,3.92
2022-08-21T11:02:02.026Z,3.43
2022-08-21T11:07:17.167Z,3.53
2022-08-21T11:12:15.491Z,3.95
2022-08-21T11:17:22.331Z,2.70
2022-08-21T11:22:29.286Z,3.67
2022-08-21T11:27:36.386Z,5.26
2022-08-21T11:32:43.392Z,3.49
2022-08-21T11:37:50.460Z,4.07
2022-08-21T11:42:57.453Z,4.90
2022-08-21T11:48:04.527Z,4.49
2022-08-21T11:53:11.514Z,4.82
2022-08-21T11:58:18.744Z,8.67
2022-08-21T12:03:25.731Z,5.07
2022-08-21T12:08:32.892Z,7.43
2022-08-21T12:13:42.406Z,6.07
2022-08-21T12:18:46.487Z,8.00
2022-08-21T12:23:53.415Z,7.11
2022-08-21T12:29:00.416Z,7.05
2022-08-21T12:34:07.384Z,4.65
2022-08-21T12:39:14.447Z,6.32
2022-08-21T12:44:21.417Z,9.26
2022-08-21T12:49:28.519Z,6.31
2022-08-21T12:54:35.483Z,6.98
2022-08-21T12:59:42.704Z,11.24
2022-08-21T13:04:49.669Z,12.64
2022-08-21T13:09:56.741Z,11.42
2022-08-21T13:15:03.696Z,12.42
2022-08-21T13:20:10.842Z,18.68
2022-08-21T13:25:17.780Z,10.61
2022-08-21T13:30:24.762Z,7.19
2022-08-21T13:35:31.734Z,11.68
2022-08-21T13:40:38.688Z,12.08
2022-08-21T13:45:45.660Z,12.63
2022-08-21T13:50:52.854Z,16.86
2022-08-21T13:56:00.852Z,12.36
2022-08-21T14:01:06.871Z,11.40
2022-08-21T14:06:13.526Z,9.07
2022-08-21T14:11:20.481Z,13.82
2022-08-21T14:16:27.425Z,14.70
2022-08-21T14:21:34.430Z,8.49
2022-08-21T14:26:41.386Z,5.18
2022-08-21T14:31:48.484Z,1.95
2022-08-21T14:36:54.942Z,3.59
2022-08-21T14:42:01.941Z,4.00
2022-08-21T14:47:08.863Z,2.50
2022-08-21T14:52:15.808Z,2.67
2022-08-21T14:57:22.768Z,2.40
2022-08-21T15:02:30.102Z,3.35
2022-08-21T15:07:37.011Z,2.56
2022-08-21T15:12:44.094Z,2.02
2022-08-21T15:17:51.022Z,2.36
2022-08-21T15:22:58.349Z,1.73
2022-08-21T15:28:05.073Z,2.35
2022-08-21T15:33:12.181Z,1.37
2022-08-21T15:38:19.209Z,3.47
2022-08-21T15:43:30.331Z,1.49
2022-08-21T15:48:32.839Z,0.95
2022-08-21T15:53:40.002Z,2.84
2022-08-21T15:58:46.977Z,1.09
2022-08-21T16:03:53.969Z,0.75
2022-08-21T16:09:00.945Z,2.49
2022-08-21T16:14:07.930Z,1.44
2022-08-21T16:19:14.840Z,4.29
2022-08-21T16:24:21.991Z,2.81
2022-08-21T16:29:28.907Z,0.91
2022-08-21T16:34:36.102Z,1.04
2022-08-21T16:39:43.041Z,2.86
2022-08-21T16:44:50.106Z,2.18
2022-08-21T16:49:56.639Z,1.86
2022-08-21T16:55:03.644Z,0.89
2022-08-21T17:00:10.634Z,1.83
2022-08-21T17:05:17.768Z,1.17
2022-08-21T17:10:24.705Z,1.31
2022-08-21T17:15:31.805Z,2.94
2022-08-21T17:20:38.725Z,1.64
2022-08-21T17:25:45.693Z,1.79
2022-08-21T17:30:52.653Z,2.68
2022-08-21T17:35:59.706Z,2.75
2022-08-21T17:41:06.711Z,2.56
2022-08-21T17:46:14.682Z,2.85
2022-08-21T17:51:21.651Z,1.56
2022-08-21T17:56:28.598Z,2.18
2022-08-21T18:01:35.574Z,2.44
2022-08-21T18:06:42.573Z,4.16
2022-08-21T18:11:49.542Z,3.54
2022-08-21T18:16:56.518Z,4.02
2022-08-21T18:22:04.720Z,4.30
2022-08-21T18:27:10.102Z,2.75
2022-08-21T18:32:30.544Z,2.55
2022-08-21T18:37:23.609Z,2.48
2022-08-21T18:42:30.631Z,3.24
2022-08-21T18:47:37.844Z,3.89
2022-08-21T18:53:11.135Z,2.81
2022-08-21T18:57:51.457Z,4.10
2022-08-21T19:02:58.557Z,3.18
2022-08-21T19:08:05.519Z,4.68
2022-08-21T19:13:12.524Z,5.84
2022-08-21T19:18:22.543Z,4.94
2022-08-21T19:23:29.131Z,3.98
2022-08-21T19:28:32.882Z,2.35
2022-08-21T19:33:39.847Z,3.16
2022-08-21T19:38:46.902Z,2.44
2022-08-21T19:43:54.190Z,2.45
2022-08-21T19:49:01.280Z,1.85
2022-08-21T19:54:10.898Z,2.72
2022-08-21T19:59:14.907Z,2.55
2022-08-21T20:04:21.558Z,5.30
2022-08-21T20:09:28.506Z,2.79
2022-08-21T20:14:35.581Z,3.81
2022-08-21T20:19:42.493Z,5.00
2022-08-21T20:24:49.511Z,4.16
2022-08-21T20:29:56.478Z,4.54
2022-08-21T20:35:03.504Z,3.49
2022-08-21T20:40:11.204Z,4.57
2022-08-21T20:45:17.193Z,5.18
2022-08-21T20:50:23.881Z,7.67
2022-08-21T20:55:30.790Z,5.35
2022-08-21T21:00:37.343Z,4.22
2022-08-21T21:05:44.423Z,4.22
2022-08-21T21:10:51.432Z,2.72
2022-08-21T21:15:58.580Z,3.23
2022-08-21T21:21:05.607Z,2.23
2022-08-21T21:26:14.523Z,3.36
2022-08-21T21:31:19.134Z,1.43
2022-08-21T21:36:26.131Z,1.81
2022-08-21T21:41:32.671Z,2.96
2022-08-21T21:46:39.194Z,3.21
2022-08-21T21:51:45.720Z,2.18
2022-08-21T21:56:52.772Z,2.54
2022-08-21T22:01:59.716Z,2.09
2022-08-21T22:07:06.823Z,3.74
2022-08-21T22:12:13.265Z,4.52
2022-08-21T22:17:20.400Z,4.25
2022-08-21T22:22:26.920Z,2.83
2022-08-21T22:27:34.018Z,4.36
2022-08-21T22:32:42.790Z,2.95
2022-08-21T22:37:47.735Z,2.67
2022-08-21T22:42:54.718Z,4.57
2022-08-21T22:48:01.798Z,3.24
2022-08-21T22:53:08.770Z,6.00
2022-08-21T22:58:15.842Z,2.66
2022-08-21T23:03:22.975Z,2.22
2022-08-21T23:08:29.422Z,0.82
2022-08-21T23:13:35.892Z,1.07
2022-08-21T23:18:43.004Z,1.22
2022-08-21T23:23:49.957Z,1.12
2022-08-21T23:28:57.149Z,2.69
2022-08-21T23:34:05.939Z,2.77
2022-08-21T23:39:10.573Z,2.34
2022-08-21T23:44:17.698Z,3.90
2022-08-21T23:49:24.646Z,3.82
2022-08-21T23:54:31.642Z,2.96
2022-08-21T23:59:38.604Z,6.41
